Time;durP1;ratioP1;P1;durP2;ratioP2;P2;SDS_P1;SDS_P2;PMS_P1;PMS_P2;Temp;Humidity;BMP_temperature;BMP_pressure;BME280_temperature;BME280_humidity;BME280_pressure;Samples;Min_cycle;Max_cycle;Signal;HPM_P1;HPM_P2
2021/03/25 00:00:42;;;;;;;10.02;6.22;;;7.90;88.90;;;;;;5093597;28;20126;-75
2021/03/25 00:03:13;;;;;;;12.63;6.47;;;8.00;88.80;;;;;;5093496;28;20139;-75
2021/03/25 00:05:40;;;;;;;10.02;6.25;;;7.90;88.70;;;;;;5093604;28;20131;-75
2021/03/25 00:08:11;;;;;;;9.75;5.80;;;7.90;87.70;;;;;;5100257;28;20458;-75
2021/03/25 00:10:38;;;;;;;10.27;5.75;;;7.70;87.90;;;;;;5102839;28;20068;-75
2021/03/25 00:13:07;;;;;;;9.52;5.63;;;7.70;89.00;;;;;;5102997;28;20076;-75
2021/03/25 00:15:36;;;;;;;8.73;5.30;;;7.70;88.80;;;;;;5078658;28;20323;-75
2021/03/25 00:18:02;;;;;;;13.43;5.75;;;7.70;89.10;;;;;;5096554;28;20135;-75
2021/03/25 00:20:29;;;;;;;9.23;5.55;;;7.70;89.50;;;;;;5096223;28;20131;-76
2021/03/25 00:22:56;;;;;;;9.70;5.63;;;7.70;89.50;;;;;;5062235;28;20131;-75
2021/03/25 00:25:27;;;;;;;9.60;5.65;;;7.70;89.30;;;;;;5077991;28;20156;-75
2021/03/25 00:27:54;;;;;;;10.02;5.15;;;7.60;89.30;;;;;;5096105;28;20189;-75
2021/03/25 00:30:25;;;;;;;9.70;6.05;;;7.60;90.00;;;;;;5096397;28;20126;-76
2021/03/25 00:32:53;;;;;;;10.23;5.70;;;7.60;89.60;;;;;;5096207;28;20071;-75
2021/03/25 00:35:20;;;;;;;9.40;5.57;;;7.60;89.60;;;;;;5096115;28;20131;-75
2021/03/25 00:37:47;;;;;;;11.07;5.95;;;7.50;89.50;;;;;;5095910;28;20138;-75
2021/03/25 00:40:15;;;;;;;12.32;6.90;;;7.50;89.20;;;;;;5095840;28;20130;-76
2021/03/25 00:42:42;;;;;;;12.85;7.03;;;7.50;88.90;;;;;;5095938;28;20093;-75
2021/03/25 00:45:14;;;;;;;10.80;6.10;;;7.40;89.30;;;;;;5095856;28;20131;-75
2021/03/25 00:47:42;;;;;;;10.95;6.55;;;7.30;90.00;;;;;;5095935;28;20043;-75
2021/03/25 00:50:19;;;;;;;13.07;6.50;;;7.20;90.30;;;;;;5060790;28;20138;-75
2021/03/25 00:52:45;;;;;;;12.30;6.30;;;7.30;90.40;;;;;;5095988;28;20052;-75
2021/03/25 00:55:13;;;;;;;14.13;6.57;;;7.20;90.60;;;;;;5095828;28;20552;-75
2021/03/25 00:57:40;;;;;;;17.73;8.23;;;7.20;90.30;;;;;;5095194;28;20438;-75
2021/03/25 01:00:08;;;;;;;13.93;7.65;;;7.20;90.60;;;;;;5095267;28;20577;-75
2021/03/25 01:02:35;;;;;;;12.70;6.43;;;7.20;90.40;;;;;;5095486;28;20477;-75
2021/03/25 01:05:02;;;;;;;10.60;6.55;;;7.20;90.10;;;;;;5077548;28;20054;-74
2021/03/25 01:07:31;;;;;;;12.82;6.10;;;7.10;89.70;;;;;;5092517;28;20097;-75
2021/03/25 01:09:57;;;;;;;8.90;5.40;;;7.00;90.20;;;;;;5077163;28;20660;-75
2021/03/25 01:12:25;;;;;;;11.88;6.18;;;6.90;90.70;;;;;;5092717;28;20040;-75
2021/03/25 01:14:52;;;;;;;12.32;6.32;;;6.80;91.20;;;;;;5092090;28;20084;-75
2021/03/25 01:17:18;;;;;;;10.50;6.00;;;6.80;91.30;;;;;;5092397;28;20048;-75
2021/03/25 01:19:45;;;;;;;11.20;6.55;;;6.90;91.40;;;;;;5092215;28;20130;-75
2021/03/25 01:22:12;;;;;;;12.00;6.70;;;6.80;91.50;;;;;;5092569;28;20040;-75
2021/03/25 01:24:39;;;;;;;10.65;6.20;;;6.80;91.80;;;;;;5092483;28;20553;-75
2021/03/25 01:27:08;;;;;;;12.23;7.40;;;6.80;92.10;;;;;;5092243;28;20048;-75
2021/03/25 01:29:34;;;;;;;13.63;7.45;;;6.80;92.20;;;;;;5073611;28;20048;-75
2021/03/25 01:32:01;;;;;;;11.50;6.28;;;6.90;92.00;;;;;;5092373;28;20050;-75
2021/03/25 01:34:28;;;;;;;11.32;6.72;;;6.90;92.00;;;;;;5091710;28;20131;-75
2021/03/25 01:36:54;;;;;;;12.85;7.28;;;6.90;91.90;;;;;;5092122;28;20568;-75
2021/03/25 01:39:21;;;;;;;13.57;7.00;;;6.90;92.00;;;;;;5091888;28;20131;-75
2021/03/25 01:41:48;;;;;;;10.65;6.00;;;6.90;92.10;;;;;;5092019;28;20528;-75
2021/03/25 01:44:35;;;;;;;11.80;6.90;;;6.90;91.50;;;;;;5091705;28;20556;-75
2021/03/25 01:47:05;;;;;;;10.98;5.80;;;6.80;91.60;;;;;;5090512;28;20431;-75
2021/03/25 01:49:32;;;;;;;12.75;5.97;;;6.80;91.70;;;;;;5092028;28;20055;-75
2021/03/25 01:52:30;;;;;;;11.88;6.07;;;6.80;91.50;;;;;;5091520;28;20436;-75
2021/03/25 01:55:17;;;;;;;13.38;6.72;;;6.80;91.60;;;;;;5094100;28;20127;-76
2021/03/25 01:58:15;;;;;;;10.98;6.18;;;6.70;91.90;;;;;;5094150;28;20158;-75
2021/03/25 02:00:46;;;;;;;11.43;6.50;;;6.70;92.10;;;;;;5084442;28;20050;-75
2021/03/25 02:03:44;;;;;;;10.65;6.00;;;6.70;91.90;;;;;;5093569;28;20135;-75
2021/03/25 02:06:21;;;;;;;10.77;6.07;;;6.70;91.70;;;;;;5074337;28;20051;-74
2021/03/25 02:09:08;;;;;;;10.10;5.53;;;6.70;91.90;;;;;;5085057;28;20052;-75
2021/03/25 02:11:43;;;;;;;11.15;6.35;;;6.70;91.50;;;;;;5093624;28;20627;-75
2021/03/25 02:14:18;;;;;;;11.98;6.00;;;6.60;91.40;;;;;;5094054;28;20147;-75
2021/03/25 02:16:58;;;;;;;9.98;5.32;;;6.60;91.80;;;;;;5094015;28;20138;-75
2021/03/25 02:19:44;;;;;;;9.82;5.78;;;6.60;92.00;;;;;;5093196;28;20417;-75
2021/03/25 02:22:41;;;;;;;10.98;5.95;;;6.60;91.90;;;;;;5078971;28;20143;-75
2021/03/25 02:25:12;;;;;;;10.07;5.60;;;6.60;92.20;;;;;;5088769;28;20049;-75
2021/03/25 02:27:47;;;;;;;10.57;5.70;;;6.60;92.10;;;;;;5091441;28;20682;-74
2021/03/25 02:30:17;;;;;;;12.57;5.53;;;6.60;92.20;;;;;;5093283;28;20135;-74
2021/03/25 02:32:53;;;;;;;11.25;5.53;;;6.60;92.10;;;;;;5093420;28;20054;-75
2021/03/25 02:35:28;;;;;;;12.73;5.65;;;6.60;92.00;;;;;;5093743;28;20123;-74
2021/03/25 02:38:03;;;;;;;10.75;6.00;;;6.60;92.00;;;;;;5093127;28;20069;-74
2021/03/25 02:40:34;;;;;;;9.85;5.22;;;6.60;91.90;;;;;;5093631;28;20131;-75
2021/03/25 02:43:06;;;;;;;9.38;5.95;;;6.60;92.10;;;;;;5093241;28;20541;-75
2021/03/25 02:45:43;;;;;;;10.38;5.90;;;6.50;92.10;;;;;;5075000;28;20048;-75
2021/03/25 02:48:16;;;;;;;10.18;5.45;;;6.50;91.80;;;;;;5076035;28;20044;-74
2021/03/25 02:50:48;;;;;;;12.25;5.63;;;6.50;91.90;;;;;;5093499;28;20044;-75
2021/03/25 02:53:23;;;;;;;10.32;5.35;;;6.50;92.00;;;;;;5093597;28;20182;-74
2021/03/25 02:55:53;;;;;;;10.88;6.22;;;6.50;92.10;;;;;;5093332;28;20143;-75
2021/03/25 02:58:24;;;;;;;10.90;6.35;;;6.40;92.00;;;;;;5092917;28;20185;-74
2021/03/25 03:00:59;;;;;;;11.45;5.50;;;6.40;92.00;;;;;;5084965;28;20132;-74
2021/03/25 03:03:31;;;;;;;9.68;5.32;;;6.40;92.20;;;;;;5093451;28;20060;-74
2021/03/25 03:05:59;;;;;;;10.25;6.03;;;6.30;92.20;;;;;;5092322;28;20050;-74
2021/03/25 03:08:31;;;;;;;11.55;5.88;;;6.30;92.10;;;;;;5093461;28;20458;-75
2021/03/25 03:11:04;;;;;;;11.65;6.07;;;6.30;91.90;;;;;;5085683;28;20134;-75
2021/03/25 03:13:37;;;;;;;11.45;6.00;;;6.30;91.90;;;;;;5075361;28;20142;-74
2021/03/25 03:16:08;;;;;;;11.32;6.28;;;6.20;91.70;;;;;;5078005;28;20140;-74
2021/03/25 03:18:42;;;;;;;15.85;6.22;;;6.20;91.60;;;;;;5093119;28;20058;-75
2021/03/25 03:21:15;;;;;;;9.25;5.80;;;6.10;91.60;;;;;;5093219;28;20044;-74
2021/03/25 03:23:42;;;;;;;10.65;5.07;;;6.00;92.00;;;;;;5092651;28;20146;-75
2021/03/25 03:26:18;;;;;;;11.50;5.72;;;5.90;92.40;;;;;;5093068;28;20040;-75
2021/03/25 03:28:48;;;;;;;10.90;5.22;;;5.80;92.60;;;;;;5083850;28;20151;-75
2021/03/25 03:31:22;;;;;;;10.93;6.05;;;5.90;92.90;;;;;;5092703;28;20126;-75
2021/03/25 03:33:54;;;;;;;9.13;5.68;;;5.90;92.40;;;;;;5092270;28;20119;-74
2021/03/25 03:36:24;;;;;;;9.35;5.57;;;5.90;92.30;;;;;;5092843;28;20134;-74
2021/03/25 03:38:55;;;;;;;9.00;5.25;;;5.80;92.60;;;;;;5074846;28;20512;-74
2021/03/25 03:41:29;;;;;;;10.27;5.57;;;5.80;92.70;;;;;;5092626;28;20131;-74
2021/03/25 03:44:00;;;;;;;10.43;5.47;;;5.70;92.80;;;;;;5092964;28;20379;-75
2021/03/25 03:46:28;;;;;;;10.20;5.78;;;5.70;92.70;;;;;;5074937;28;20130;-75
2021/03/25 03:49:08;;;;;;;9.85;5.60;;;5.70;92.70;;;;;;5092603;28;20118;-75
2021/03/25 03:51:43;;;;;;;11.82;5.97;;;5.60;92.70;;;;;;5092771;28;20131;-74
2021/03/25 03:54:11;;;;;;;11.68;6.05;;;5.60;92.90;;;;;;5074862;28;20135;-75
2021/03/25 03:56:51;;;;;;;11.43;5.88;;;5.50;92.60;;;;;;5092635;28;20127;-74
2021/03/25 03:59:26;;;;;;;10.80;6.20;;;5.50;92.80;;;;;;5092365;28;20131;-75
2021/03/25 04:02:03;;;;;;;9.75;5.88;;;5.50;93.00;;;;;;5091694;28;20091;-75
2021/03/25 04:04:39;;;;;;;10.63;6.18;;;5.40;93.30;;;;;;5089934;28;20059;-74
2021/03/25 04:07:10;;;;;;;10.75;5.80;;;5.40;93.40;;;;;;5075706;28;20044;-75
2021/03/25 04:09:44;;;;;;;11.20;5.85;;;5.40;93.30;;;;;;5089630;28;20039;-74
2021/03/25 04:12:15;;;;;;;12.27;6.15;;;5.40;93.10;;;;;;5089525;28;20581;-75
2021/03/25 04:14:46;;;;;;;10.32;6.53;;;5.50;92.90;;;;;;5089766;28;20048;-73
2021/03/25 04:17:19;;;;;;;9.57;5.90;;;5.40;92.60;;;;;;5090310;28;20127;-74
2021/03/25 04:19:51;;;;;;;10.93;6.13;;;5.30;92.90;;;;;;5090066;28;20378;-74
2021/03/25 04:22:22;;;;;;;9.57;5.78;;;5.40;92.90;;;;;;5089865;28;20086;-74
2021/03/25 04:24:55;;;;;;;11.23;5.63;;;5.30;92.90;;;;;;5089726;28;20036;-74
2021/03/25 04:27:28;;;;;;;11.52;5.80;;;5.30;93.00;;;;;;5071994;28;20131;-74
2021/03/25 04:30:00;;;;;;;9.23;5.30;;;5.30;93.00;;;;;;5090087;28;20130;-74
2021/03/25 04:32:27;;;;;;;10.98;6.00;;;5.20;93.10;;;;;;5089733;28;20135;-75
2021/03/25 04:34:55;;;;;;;10.82;5.70;;;5.20;93.20;;;;;;5071807;28;20055;-75
2021/03/25 04:37:23;;;;;;;11.20;6.03;;;5.20;93.30;;;;;;5089815;28;20478;-75
2021/03/25 04:39:51;;;;;;;11.55;5.75;;;5.10;93.30;;;;;;5089876;28;20490;-74
2021/03/25 04:42:18;;;;;;;11.00;5.60;;;5.10;93.40;;;;;;5089190;28;20127;-74
2021/03/25 04:44:49;;;;;;;10.05;5.68;;;5.10;93.50;;;;;;5072624;28;20062;-74
2021/03/25 04:47:21;;;;;;;8.95;5.80;;;5.10;93.40;;;;;;5092837;28;20489;-74
2021/03/25 04:49:55;;;;;;;10.35;5.72;;;5.10;93.30;;;;;;5092920;28;20482;-74
2021/03/25 04:52:24;;;;;;;12.85;6.13;;;5.10;93.60;;;;;;5075346;28;20040;-75
2021/03/25 04:54:52;;;;;;;9.80;5.43;;;5.00;93.40;;;;;;5093483;28;20147;-74
2021/03/25 04:57:27;;;;;;;9.95;5.43;;;5.10;93.40;;;;;;5093004;28;20051;-74
2021/03/25 04:59:57;;;;;;;12.25;5.57;;;5.00;93.70;;;;;;5092598;28;20478;-74
2021/03/25 05:02:25;;;;;;;12.25;6.00;;;5.00;93.70;;;;;;5094290;28;20131;-75
2021/03/25 05:04:56;;;;;;;8.68;5.60;;;5.00;93.50;;;;;;5095833;28;20132;-74
2021/03/25 05:07:28;;;;;;;11.15;5.65;;;4.90;93.20;;;;;;5095643;28;20135;-75
2021/03/25 05:09:57;;;;;;;9.95;5.72;;;4.90;93.50;;;;;;5095062;28;20126;-75
2021/03/25 05:12:25;;;;;;;10.02;5.63;;;4.80;93.30;;;;;;5095089;28;20079;-74
2021/03/25 05:15:07;;;;;;;10.85;5.53;;;4.70;93.80;;;;;;5103228;28;20080;-74
2021/03/25 05:17:46;;;;;;;11.38;5.78;;;4.70;94.00;;;;;;5084830;28;20127;-75
2021/03/25 05:20:21;;;;;;;9.68;5.38;;;4.70;94.00;;;;;;5095418;28;20493;-75
2021/03/25 05:22:58;;;;;;;;;;;4.70;94.20;;;;;;5101815;28;20122;-74
2021/03/25 05:25:35;;;;;;;12.35;5.70;;;4.60;94.40;;;;;;5098890;28;20014;-74
2021/03/25 05:28:10;;;;;;;9.93;5.50;;;4.70;94.30;;;;;;5088269;28;20119;-74
2021/03/25 05:30:40;;;;;;;10.27;5.70;;;4.70;94.40;;;;;;5095728;28;20052;-74
2021/03/25 05:33:16;;;;;;;10.85;5.50;;;4.70;94.30;;;;;;5095385;28;20132;-74
2021/03/25 05:35:49;;;;;;;11.07;5.50;;;4.70;94.10;;;;;;5095063;28;20127;-74
2021/03/25 05:38:15;;;;;;;8.23;4.93;;;4.70;94.20;;;;;;5095273;28;20066;-74
2021/03/25 05:40:52;;;;;;;13.45;6.15;;;4.70;94.50;;;;;;5095326;28;20135;-74
2021/03/25 05:44:13;;;;;;;9.68;5.53;;;4.70;94.50;;;;;;5095004;28;20548;-74
2021/03/25 05:46:48;;;;;;;9.77;5.45;;;4.70;94.40;;;;;;5095090;28;20576;-74
2021/03/25 05:49:25;;;;;;;;;;;4.70;93.90;;;;;;5095517;28;20572;-74
2021/03/25 05:52:05;;;;;;;8.75;5.05;;;4.70;93.40;;;;;;5094884;28;20010;-74
2021/03/25 05:54:55;;;;;;;9.82;5.25;;;4.60;93.90;;;;;;5094198;28;20059;-74
2021/03/25 05:57:33;;;;;;;11.38;5.57;;;4.60;94.50;;;;;;5075930;28;20127;-74
2021/03/25 06:00:14;;;;;;;10.13;5.20;;;4.60;94.70;;;;;;5094831;28;20474;-75
2021/03/25 06:02:46;;;;;;;10.07;5.45;;;4.60;94.60;;;;;;5094617;28;20107;-74
2021/03/25 06:05:14;;;;;;;11.43;5.68;;;4.70;94.90;;;;;;5094765;28;20052;-74
2021/03/25 06:08:09;;;;;;;9.95;5.00;;;4.70;94.90;;;;;;5076874;28;20126;-74
2021/03/25 06:10:49;;;;;;;9.77;5.28;;;4.70;95.10;;;;;;5075942;28;20044;-75
2021/03/25 06:13:32;;;;;;;10.32;5.65;;;4.80;94.90;;;;;;5085073;28;20085;-75
2021/03/25 06:16:38;;;;;;;9.18;5.30;;;4.90;95.10;;;;;;5067498;28;20194;-75
2021/03/25 06:19:25;;;;;;;12.30;6.35;;;5.00;95.30;;;;;;5081052;28;20079;-74
2021/03/25 06:22:07;;;;;;;11.18;6.20;;;5.10;94.80;;;;;;5084520;28;20076;-74
2021/03/25 06:25:33;;;;;;;12.40;6.25;;;5.20;94.80;;;;;;5098576;28;20079;-74
2021/03/25 06:28:25;;;;;;;12.23;6.05;;;5.30;94.90;;;;;;5088549;28;20076;-75
2021/03/25 06:31:25;;;;;;;10.95;6.13;;;5.30;94.70;;;;;;5104383;28;20085;-75
2021/03/25 06:34:01;;;;;;;10.98;6.20;;;5.30;94.80;;;;;;5104668;28;20086;-75
2021/03/25 06:36:45;;;;;;;12.23;6.57;;;5.40;94.80;;;;;;5094349;28;20083;-75
2021/03/25 06:39:23;;;;;;;14.32;7.63;;;5.50;94.70;;;;;;5094190;28;20131;-75
2021/03/25 06:42:05;;;;;;;11.57;6.28;;;5.50;94.40;;;;;;5076532;28;20562;-75
2021/03/25 06:44:43;;;;;;;11.32;6.03;;;5.60;94.60;;;;;;5094098;28;20134;-74
2021/03/25 06:47:23;;;;;;;10.70;6.15;;;5.60;94.70;;;;;;5093872;28;20055;-75
2021/03/25 06:49:53;;;;;;;10.00;5.90;;;5.70;94.70;;;;;;5094063;28;20581;-75
2021/03/25 06:52:29;;;;;;;11.50;6.43;;;5.80;94.70;;;;;;5094000;28;20055;-75
2021/03/25 06:55:00;;;;;;;9.70;5.63;;;5.90;94.70;;;;;;5098634;28;20126;-75
2021/03/25 06:57:41;;;;;;;10.48;5.82;;;6.00;94.70;;;;;;5095790;28;20131;-75
2021/03/25 07:00:15;;;;;;;11.88;6.25;;;6.00;94.70;;;;;;5094202;28;20135;-75
2021/03/25 07:02:45;;;;;;;10.20;6.05;;;6.10;94.60;;;;;;5059476;28;20147;-75
2021/03/25 07:05:22;;;;;;;10.48;6.28;;;6.20;94.50;;;;;;5093523;28;20054;-75
2021/03/25 07:07:58;;;;;;;11.05;6.05;;;6.30;94.30;;;;;;5093179;28;20555;-75
2021/03/25 07:10:25;;;;;;;9.55;5.88;;;6.40;94.10;;;;;;5093593;28;20139;-75
2021/03/25 07:13:02;;;;;;;8.68;5.20;;;6.50;94.20;;;;;;5101628;28;20112;-74
2021/03/25 07:15:29;;;;;;;9.93;5.53;;;6.60;94.10;;;;;;5095374;28;20044;-75
2021/03/25 07:17:56;;;;;;;9.90;5.95;;;6.70;94.30;;;;;;5093146;28;20132;-75
2021/03/25 07:20:27;;;;;;;11.32;6.07;;;6.70;93.90;;;;;;5093473;28;20201;-74
2021/03/25 07:23:05;;;;;;;11.38;6.75;;;6.80;93.70;;;;;;5093051;28;20166;-74
2021/03/25 07:25:34;;;;;;;10.50;5.97;;;6.90;93.70;;;;;;5075162;28;20420;-75
2021/03/25 07:28:03;;;;;;;10.60;5.68;;;7.00;93.60;;;;;;5093431;28;20044;-75
2021/03/25 07:30:45;;;;;;;10.68;6.03;;;7.10;93.60;;;;;;5093212;28;20202;-76
2021/03/25 07:33:15;;;;;;;11.30;5.85;;;7.20;93.60;;;;;;5093062;28;20132;-75
2021/03/25 07:35:45;;;;;;;12.00;6.00;;;7.20;93.50;;;;;;5092870;28;20131;-75
2021/03/25 07:38:26;;;;;;;12.50;5.90;;;7.30;93.50;;;;;;5093188;28;20086;-75
2021/03/25 07:41:18;;;;;;;10.65;6.15;;;7.40;93.40;;;;;;5092975;28;20138;-75
2021/03/25 07:43:56;;;;;;;10.35;5.75;;;7.50;93.40;;;;;;5093103;28;20059;-75
2021/03/25 07:46:32;;;;;;;10.48;5.50;;;7.60;93.10;;;;;;5093091;28;20083;-74
2021/03/25 07:49:12;;;;;;;10.82;5.90;;;7.60;93.10;;;;;;5073729;28;20055;-75
2021/03/25 07:51:50;;;;;;;10.40;5.75;;;7.70;92.70;;;;;;5092519;28;20044;-75
2021/03/25 07:54:25;;;;;;;9.57;5.72;;;7.70;92.70;;;;;;5091558;28;20040;-74
2021/03/25 07:56:59;;;;;;;9.27;5.65;;;7.90;92.60;;;;;;5093099;28;20131;-74
2021/03/25 07:59:43;;;;;;;10.52;5.95;;;7.90;92.70;;;;;;5092676;28;20090;-75
2021/03/25 08:02:29;;;;;;;9.70;5.60;;;8.10;91.70;;;;;;5092982;28;20137;-75
2021/03/25 08:04:57;;;;;;;10.02;5.47;;;8.10;92.00;;;;;;5093228;28;20080;-74
2021/03/25 08:07:25;;;;;;;8.25;4.97;;;8.20;91.90;;;;;;5092843;28;20087;-75
2021/03/25 08:09:55;;;;;;;10.68;5.40;;;8.30;91.90;;;;;;5092342;28;20134;-74
2021/03/25 08:12:29;;;;;;;10.55;6.22;;;8.40;91.90;;;;;;5075463;28;20133;-74
2021/03/25 08:15:22;;;;;;;9.85;5.80;;;8.50;91.20;;;;;;5074580;28;20044;-74
2021/03/25 08:18:10;;;;;;;9.98;5.30;;;8.60;91.00;;;;;;5092352;28;20054;-74
2021/03/25 08:20:45;;;;;;;10.63;5.45;;;8.60;91.10;;;;;;5079464;28;20129;-74
2021/03/25 08:23:45;;;;;;;8.85;5.55;;;8.70;91.20;;;;;;5096297;28;20128;-74
2021/03/25 08:26:21;;;;;;;14.20;6.03;;;8.90;91.30;;;;;;5075778;28;20545;-74
2021/03/25 08:29:02;;;;;;;8.07;4.90;;;9.00;90.90;;;;;;5076039;28;20135;-75
2021/03/25 08:31:35;;;;;;;11.50;5.43;;;9.00;90.90;;;;;;5076461;28;20470;-74
2021/03/25 08:34:33;;;;;;;10.35;5.30;;;9.20;90.80;;;;;;5076015;28;20137;-74
2021/03/25 08:37:35;;;;;;;11.00;5.40;;;9.30;90.80;;;;;;5076107;28;20455;-75
2021/03/25 08:40:05;;;;;;;10.88;6.00;;;9.50;90.80;;;;;;5066597;28;20072;-75
2021/03/25 08:42:39;;;;;;;8.95;5.22;;;9.60;90.60;;;;;;5096548;28;20055;-74
2021/03/25 08:45:20;;;;;;;8.30;5.35;;;9.70;90.50;;;;;;5096511;28;20138;-74
2021/03/25 08:47:56;;;;;;;8.85;5.80;;;9.80;89.90;;;;;;5095668;28;20086;-75
2021/03/25 08:50:45;;;;;;;7.93;5.05;;;9.90;89.30;;;;;;5096681;28;20130;-74
2021/03/25 08:53:31;;;;;;;9.52;5.45;;;10.00;89.20;;;;;;5079047;28;20115;-74
2021/03/25 08:56:02;;;;;;;8.10;5.10;;;10.10;89.20;;;;;;5096572;28;20458;-74
2021/03/25 08:58:35;;;;;;;9.75;5.38;;;10.20;88.80;;;;;;5096046;28;20142;-74
2021/03/25 09:01:06;;;;;;;10.27;5.57;;;10.30;88.70;;;;;;5096257;28;20127;-74
2021/03/25 09:03:39;;;;;;;9.43;5.45;;;10.40;88.40;;;;;;5095780;28;20084;-74
2021/03/25 09:06:11;;;;;;;10.23;5.53;;;10.50;88.20;;;;;;5095881;28;20088;-74
2021/03/25 09:08:40;;;;;;;10.07;5.47;;;10.50;88.10;;;;;;5095988;28;20044;-75
2021/03/25 09:11:13;;;;;;;8.68;5.30;;;10.60;88.10;;;;;;5095788;28;20048;-75
2021/03/25 09:13:44;;;;;;;9.88;5.15;;;10.70;87.90;;;;;;5105499;28;20075;-75
2021/03/25 09:16:20;;;;;;;8.90;5.28;;;10.80;87.50;;;;;;5096174;28;20113;-75
2021/03/25 09:18:48;;;;;;;10.27;5.72;;;10.90;87.20;;;;;;5095457;28;20132;-75
2021/03/25 09:21:19;;;;;;;8.20;5.50;;;11.00;86.80;;;;;;5095935;28;20044;-76
2021/03/25 09:24:06;;;;;;;9.85;5.43;;;11.10;86.60;;;;;;5095571;28;20135;-76
2021/03/25 09:26:54;;;;;;;9.70;5.50;;;11.20;86.40;;;;;;5095509;28;20083;-75
2021/03/25 09:29:25;;;;;;;7.90;4.60;;;11.40;84.70;;;;;;5095689;28;20131;-75
2021/03/25 09:32:33;;;;;;;9.23;5.35;;;11.50;84.60;;;;;;5076523;28;20442;-75
2021/03/25 09:35:04;;;;;;;8.82;4.57;;;11.60;83.50;;;;;;5095497;28;20052;-76
2021/03/25 09:37:33;;;;;;;5.85;3.58;;;11.80;80.30;;;;;;5095116;28;20465;-75
2021/03/25 09:40:35;;;;;;;6.88;3.33;;;11.90;79.60;;;;;;5095301;28;20087;-76
2021/03/25 09:43:33;;;;;;;6.00;3.22;;;12.10;77.00;;;;;;5087674;28;20147;-75
2021/03/25 09:46:35;;;;;;;6.97;3.22;;;12.20;74.60;;;;;;5095564;28;20139;-75
2021/03/25 09:49:32;;;;;;;7.60;3.70;;;12.50;70.30;;;;;;5076925;28;20047;-75
2021/03/25 09:52:23;;;;;;;7.93;3.80;;;12.70;66.00;;;;;;5076683;28;20044;-75
2021/03/25 09:55:34;;;;;;;6.97;3.45;;;12.80;64.90;;;;;;5095129;28;20080;-75
2021/03/25 09:58:01;;;;;;;7.22;3.83;;;13.00;63.40;;;;;;5091124;28;20051;-76
2021/03/25 10:01:05;;;;;;;7.95;3.75;;;13.10;62.30;;;;;;5076687;28;20080;-75
2021/03/25 10:04:24;;;;;;;7.93;3.58;;;13.20;61.80;;;;;;5076727;28;20493;-75
2021/03/25 10:07:26;;;;;;;6.22;3.40;;;13.40;60.20;;;;;;5093987;28;20044;-76
2021/03/25 10:10:39;;;;;;;6.55;3.28;;;13.50;60.70;;;;;;5094466;28;20080;-76
2021/03/25 10:13:41;;;;;;;7.50;3.53;;;13.50;60.30;;;;;;5076722;28;20371;-76
2021/03/25 10:16:13;;;;;;;8.18;3.65;;;13.70;60.10;;;;;;5094454;28;20071;-75
2021/03/25 10:19:00;;;;;;;7.60;3.88;;;13.90;58.00;;;;;;5094875;28;20127;-75
2021/03/25 10:21:56;;;;;;;6.57;3.40;;;14.10;55.60;;;;;;5095642;28;20056;-75
2021/03/25 10:24:26;;;;;;;7.60;3.50;;;14.20;56.10;;;;;;5094400;28;20067;-76
2021/03/25 10:27:10;;;;;;;6.72;3.03;;;14.20;55.40;;;;;;5094421;28;20080;-76
2021/03/25 10:29:38;;;;;;;8.00;3.53;;;14.30;55.50;;;;;;5094217;28;20128;-75
2021/03/25 10:32:18;;;;;;;7.20;3.53;;;14.40;53.90;;;;;;5094263;28;20067;-75
2021/03/25 10:34:46;;;;;;;7.57;3.70;;;14.50;53.70;;;;;;5073203;28;20044;-76
2021/03/25 10:37:32;;;;;;;6.97;3.83;;;14.60;54.20;;;;;;5091540;28;20036;-75
2021/03/25 10:40:09;;;;;;;7.20;3.85;;;14.70;53.50;;;;;;5091818;28;20058;-76
2021/03/25 10:42:39;;;;;;;6.72;3.42;;;14.90;53.60;;;;;;5090734;28;20524;-75
2021/03/25 10:45:36;;;;;;;8.15;3.50;;;14.80;53.90;;;;;;5091657;28;20087;-76
2021/03/25 10:48:13;;;;;;;6.55;3.20;;;14.90;53.90;;;;;;5075053;28;20047;-76
2021/03/25 10:50:49;;;;;;;6.55;3.00;;;15.00;53.20;;;;;;5092089;28;20076;-75
2021/03/25 10:53:18;;;;;;;6.88;3.53;;;15.00;53.00;;;;;;5090354;28;20087;-76
2021/03/25 10:55:48;;;;;;;8.55;3.45;;;15.10;53.60;;;;;;5091366;28;20126;-75
2021/03/25 10:58:25;;;;;;;6.95;3.10;;;15.30;52.30;;;;;;5091217;28;20135;-75
2021/03/25 11:01:03;;;;;;;6.90;2.67;;;15.30;52.00;;;;;;5091410;28;20141;-76
2021/03/25 11:03:35;;;;;;;6.93;3.35;;;15.30;52.30;;;;;;5091215;28;20134;-76
2021/03/25 11:06:02;;;;;;;6.45;3.33;;;15.40;51.80;;;;;;5091133;28;20466;-75
2021/03/25 11:08:38;;;;;;;6.43;3.05;;;15.50;51.40;;;;;;5091396;28;20059;-76
2021/03/25 11:11:11;;;;;;;8.07;3.40;;;15.60;52.10;;;;;;5091192;28;20058;-76
2021/03/25 11:13:41;;;;;;;6.40;3.25;;;15.60;51.20;;;;;;5091103;28;20048;-76
2021/03/25 11:16:20;;;;;;;7.10;3.30;;;15.70;51.50;;;;;;5072922;28;20051;-75
2021/03/25 11:18:50;;;;;;;7.05;3.45;;;15.80;50.90;;;;;;5090763;28;20131;-76
2021/03/25 11:21:28;;;;;;;7.68;3.63;;;15.90;50.60;;;;;;5090836;28;20150;-76
2021/03/25 11:24:08;;;;;;;6.93;3.15;;;16.00;48.50;;;;;;5091044;28;20158;-76
2021/03/25 11:26:35;;;;;;;7.32;2.75;;;16.10;47.80;;;;;;5090942;28;20565;-76
2021/03/25 11:29:06;;;;;;;6.07;3.03;;;16.10;47.80;;;;;;5073274;28;20056;-75
2021/03/25 11:31:35;;;;;;;6.75;2.95;;;16.10;48.80;;;;;;5091100;28;20052;-75
2021/03/25 11:34:03;;;;;;;7.38;3.22;;;16.10;47.60;;;;;;5090628;28;20048;-76
2021/03/25 11:36:43;;;;;;;8.73;4.25;;;16.20;47.60;;;;;;5090611;28;20043;-75
2021/03/25 11:39:19;;;;;;;10.05;5.00;;;16.20;48.30;;;;;;5091200;28;20055;-76
2021/03/25 11:41:48;;;;;;;6.25;3.13;;;16.30;48.70;;;;;;5091041;28;20468;-75
2021/03/25 11:44:40;;;;;;;8.25;2.97;;;16.40;49.00;;;;;;5090749;28;20071;-76
2021/03/25 11:47:40;;;;;;;7.50;3.17;;;16.60;48.50;;;;;;5090687;28;20131;-75
2021/03/25 11:50:31;;;;;;;5.72;2.55;;;16.80;47.60;;;;;;5086783;28;20090;-75
2021/03/25 11:53:01;;;;;;;5.57;2.60;;;16.80;47.10;;;;;;5086863;28;20044;-75
2021/03/25 11:55:36;;;;;;;4.65;1.85;;;16.90;46.70;;;;;;5088892;28;20576;-76
2021/03/25 11:58:16;;;;;;;6.10;2.72;;;17.00;47.00;;;;;;5072486;28;20048;-75
2021/03/25 12:01:02;;;;;;;5.85;2.75;;;17.10;46.80;;;;;;5090109;28;20168;-75
2021/03/25 12:03:35;;;;;;;5.03;2.60;;;17.20;45.20;;;;;;5089669;28;20083;-76
2021/03/25 12:06:02;;;;;;;8.48;3.55;;;17.30;44.90;;;;;;5089639;28;20507;-76
2021/03/25 12:08:35;;;;;;;6.00;2.88;;;17.30;44.40;;;;;;5090011;28;20131;-75
2021/03/25 12:11:10;;;;;;;5.18;2.88;;;17.50;45.20;;;;;;5089856;28;20119;-74
2021/03/25 12:13:38;;;;;;;5.07;2.50;;;17.60;44.40;;;;;;5089914;28;20126;-76
2021/03/25 12:16:08;;;;;;;5.90;2.85;;;17.60;44.60;;;;;;5090002;28;20058;-76
2021/03/25 12:18:38;;;;;;;6.00;3.20;;;17.70;44.30;;;;;;5089946;28;20130;-76
2021/03/25 12:21:08;;;;;;;6.30;3.22;;;17.90;44.70;;;;;;5071817;28;20048;-76
2021/03/25 12:23:40;;;;;;;6.65;3.20;;;18.00;43.60;;;;;;5089989;28;20496;-76
2021/03/25 12:26:13;;;;;;;6.22;3.00;;;18.10;43.40;;;;;;5089723;28;20083;-76
2021/03/25 12:28:39;;;;;;;5.63;2.90;;;18.10;42.10;;;;;;5090304;28;20063;-76
2021/03/25 12:31:07;;;;;;;5.05;2.42;;;18.10;42.80;;;;;;5089492;28;20135;-76
2021/03/25 12:33:37;;;;;;;5.57;2.35;;;18.30;42.70;;;;;;5089771;28;20135;-76
2021/03/25 12:36:07;;;;;;;6.13;2.60;;;18.50;42.60;;;;;;5089631;28;20131;-76
2021/03/25 12:38:33;;;;;;;6.55;3.42;;;18.60;42.20;;;;;;5089504;28;20040;-76
2021/03/25 12:41:01;;;;;;;7.43;3.92;;;18.90;43.50;;;;;;5071772;28;20466;-76
2021/03/25 12:43:30;;;;;;;8.48;4.20;;;19.00;43.40;;;;;;5088903;28;20083;-76
2021/03/25 12:46:01;;;;;;;6.22;3.25;;;19.00;43.10;;;;;;5089564;28;20046;-76
2021/03/25 12:48:30;;;;;;;6.07;3.22;;;19.00;43.60;;;;;;5089528;28;20147;-77
2021/03/25 12:50:58;;;;;;;6.47;3.08;;;19.10;43.40;;;;;;5092204;28;20052;-76
2021/03/25 12:53:27;;;;;;;7.25;3.60;;;19.20;43.40;;;;;;5091087;28;20051;-77
2021/03/25 12:55:55;;;;;;;6.43;3.50;;;19.40;42.90;;;;;;5093704;28;20099;-76
2021/03/25 12:58:25;;;;;;;5.80;2.95;;;19.70;42.20;;;;;;5091265;28;20087;-76
2021/03/25 13:00:55;;;;;;;4.97;2.40;;;19.90;42.60;;;;;;5091182;28;20078;-76
2021/03/25 13:03:25;;;;;;;6.20;2.72;;;20.20;39.00;;;;;;5091127;28;20052;-75
2021/03/25 13:05:52;;;;;;;6.53;3.10;;;20.50;38.30;;;;;;5073631;28;20186;-75
2021/03/25 13:08:19;;;;;;;5.70;2.58;;;20.40;39.70;;;;;;5076037;28;20056;-76
2021/03/25 13:10:46;;;;;;;6.13;3.28;;;20.40;40.50;;;;;;5092932;28;20055;-76
2021/03/25 13:13:13;;;;;;;5.72;2.90;;;20.50;40.00;;;;;;5092773;28;20103;-76
2021/03/25 13:15:39;;;;;;;5.47;2.80;;;20.50;40.30;;;;;;5093272;28;20043;-76
2021/03/25 13:18:06;;;;;;;5.43;2.83;;;20.40;40.20;;;;;;5093136;28;20483;-76
2021/03/25 13:20:35;;;;;;;6.45;2.67;;;20.40;39.60;;;;;;5093122;28;20048;-76
2021/03/25 13:23:04;;;;;;;6.00;2.65;;;20.30;40.10;;;;;;5092370;28;20051;-76
2021/03/25 13:25:33;;;;;;;6.65;3.00;;;20.20;40.40;;;;;;5093019;28;20498;-76
2021/03/25 13:28:01;;;;;;;6.50;3.30;;;20.20;40.30;;;;;;5092267;28;20127;-75
2021/03/25 13:30:29;;;;;;;5.63;2.75;;;20.20;39.80;;;;;;5092929;28;20477;-76